Time;durP1;ratioP1;P1;durP2;ratioP2;P2;SDS_P1;SDS_P2;PMS_P1;PMS_P2;Temp;Humidity;BMP_temperature;BMP_pressure;BME280_temperature;BME280_humidity;BME280_pressure;Samples;Min_cycle;Max_cycle;Signal;HPM_P1;HPM_P2
2024/01/06 00:00:54;;;;;;;1.85;1.75;;;16.40;72.90;;;;;;4991995;28;20042;-87
2024/01/06 00:03:19;;;;;;;1.45;1.35;;;16.40;72.90;;;;;;4990372;28;20465;-86
2024/01/06 00:05:45;;;;;;;1.80;1.70;;;16.30;73.10;;;;;;4986717;28;20050;-86
2024/01/06 00:08:11;;;;;;;1.73;1.63;;;16.40;73.00;;;;;;4996866;28;20668;-88
2024/01/06 00:10:36;;;;;;;1.70;1.60;;;16.30;72.90;;;;;;4995784;28;20049;-88
2024/01/06 00:13:02;;;;;;;1.75;1.42;;;16.30;72.90;;;;;;4993787;28;20038;-88
2024/01/06 00:15:27;;;;;;;1.70;1.60;;;16.30;72.80;;;;;;4995871;28;20133;-87
2024/01/06 00:17:53;;;;;;;1.92;1.83;;;16.30;73.60;;;;;;5003015;28;20122;-87
2024/01/06 00:20:18;;;;;;;1.27;1.17;;;16.30;72.80;;;;;;4991060;28;20158;-87
2024/01/06 00:22:44;;;;;;;1.70;1.60;;;16.30;72.80;;;;;;5014989;28;20049;-88
2024/01/06 00:25:09;;;;;;;1.40;1.30;;;16.30;72.70;;;;;;5018354;28;20524;-87
2024/01/06 00:27:35;;;;;;;1.58;1.35;;;16.30;72.70;;;;;;4988906;28;20105;-81
2024/01/06 00:30:00;;;;;;;1.20;1.10;;;16.30;72.80;;;;;;4995906;28;20057;-80
2024/01/06 00:32:26;;;;;;;1.40;1.30;;;16.30;72.70;;;;;;5011925;28;20046;-80
2024/01/06 00:34:52;;;;;;;1.40;1.30;;;16.30;72.80;;;;;;5009098;28;20050;-80
2024/01/06 00:37:17;;;;;;;2.70;1.48;;;16.30;72.60;;;;;;4995867;28;20226;-79
2024/01/06 00:39:43;;;;;;;1.52;1.42;;;16.30;72.80;;;;;;5006578;28;20585;-80
2024/01/06 00:42:08;;;;;;;1.52;1.42;;;16.20;72.60;;;;;;5004647;28;21460;-79
2024/01/06 00:44:35;;;;;;;2.35;1.52;;;16.20;72.70;;;;;;5010715;28;20042;-80
2024/01/06 00:47:01;;;;;;;1.45;1.35;;;16.30;72.70;;;;;;5010146;28;20042;-80
2024/01/06 00:49:26;;;;;;;1.65;1.55;;;16.20;72.60;;;;;;5017248;28;20456;-80
2024/01/06 00:51:52;;;;;;;1.20;1.10;;;16.20;72.50;;;;;;5009913;28;20094;-80
2024/01/06 00:54:18;;;;;;;1.35;1.25;;;16.30;72.50;;;;;;4992811;28;20049;-79
2024/01/06 00:56:43;;;;;;;1.50;1.40;;;16.20;72.60;;;;;;5013194;28;20056;-80
2024/01/06 00:59:09;;;;;;;1.65;1.30;;;16.20;72.50;;;;;;5015276;28;20037;-80
2024/01/06 01:01:35;;;;;;;1.33;1.23;;;16.20;72.40;;;;;;5014475;28;20037;-80
2024/01/06 01:04:00;;;;;;;1.90;1.60;;;16.20;72.30;;;;;;4996541;28;20511;-80
2024/01/06 01:06:26;;;;;;;1.42;1.15;;;16.20;72.50;;;;;;5010836;28;20042;-80
2024/01/06 01:08:51;;;;;;;1.20;1.17;;;16.30;72.50;;;;;;4996084;28;20068;-80
2024/01/06 01:11:17;;;;;;;1.15;1.15;;;16.20;72.50;;;;;;5014922;28;20042;-80
2024/01/06 01:13:42;;;;;;;1.27;1.17;;;16.20;72.40;;;;;;5016674;28;20050;-80
2024/01/06 01:16:08;;;;;;;1.50;1.30;;;16.20;72.50;;;;;;5014181;28;20129;-80
2024/01/06 01:18:33;;;;;;;1.52;1.42;;;16.20;73.20;;;;;;5010969;28;20153;-80
2024/01/06 01:20:59;;;;;;;1.40;1.30;;;16.20;72.40;;;;;;5015503;28;20411;-79
2024/01/06 01:23:25;;;;;;;1.13;1.05;;;16.20;72.20;;;;;;5018611;28;20048;-79
2024/01/06 01:25:50;;;;;;;1.30;1.20;;;16.20;72.30;;;;;;5017625;28;20149;-80
2024/01/06 01:28:16;;;;;;;1.30;1.20;;;16.20;72.50;;;;;;4999312;28;20038;-79
2024/01/06 01:30:41;;;;;;;1.45;1.35;;;16.20;72.30;;;;;;5012590;28;20049;-80
2024/01/06 01:33:07;;;;;;;1.13;1.02;;;16.20;72.40;;;;;;5013718;28;20064;-80
2024/01/06 01:35:33;;;;;;;1.42;1.05;;;16.20;72.20;;;;;;5012478;28;20069;-80
2024/01/06 01:37:59;;;;;;;1.35;1.25;;;16.20;72.30;;;;;;5001147;28;20467;-79
2024/01/06 01:40:24;;;;;;;1.23;1.10;;;16.20;72.30;;;;;;5019039;28;20045;-79
2024/01/06 01:42:50;;;;;;;1.17;1.08;;;16.20;72.30;;;;;;5016518;28;20049;-79
2024/01/06 01:45:15;;;;;;;1.20;1.10;;;16.10;72.10;;;;;;5016931;28;20132;-79
2024/01/06 01:47:41;;;;;;;1.65;1.20;;;16.10;72.30;;;;;;5015756;28;20937;-79
2024/01/06 01:50:07;;;;;;;1.30;1.20;;;16.20;73.10;;;;;;4998320;28;20064;-80
2024/01/06 01:52:32;;;;;;;1.17;1.10;;;16.10;72.20;;;;;;4999460;28;20129;-79
2024/01/06 01:54:58;;;;;;;1.20;1.20;;;16.10;72.20;;;;;;4987190;28;20116;-80
2024/01/06 01:57:24;;;;;;;1.10;1.08;;;16.20;72.40;;;;;;4980708;28;20049;-79
2024/01/06 01:59:49;;;;;;;2.10;1.40;;;16.10;72.10;;;;;;4996510;28;20053;-79
2024/01/06 02:02:16;;;;;;;1.23;1.13;;;16.10;71.80;;;;;;5001155;28;20584;-80
2024/01/06 02:04:42;;;;;;;1.67;1.58;;;16.10;72.00;;;;;;4999688;28;20486;-79
2024/01/06 02:07:07;;;;;;;1.20;1.10;;;16.10;72.00;;;;;;5012027;28;20527;-80
2024/01/06 02:09:33;;;;;;;1.10;0.95;;;16.10;72.20;;;;;;5011770;28;20535;-79
2024/01/06 02:11:59;;;;;;;0.80;0.80;;;16.10;71.90;;;;;;5013723;28;20389;-80
2024/01/06 02:14:24;;;;;;;1.83;1.40;;;16.10;71.90;;;;;;5015340;28;21904;-79
2024/01/06 02:16:50;;;;;;;1.30;1.20;;;16.10;71.80;;;;;;5013207;28;20112;-80
2024/01/06 02:19:16;;;;;;;1.20;1.10;;;16.10;71.90;;;;;;5019008;28;20037;-80
2024/01/06 02:21:43;;;;;;;0.98;0.95;;;16.10;72.20;;;;;;5011747;28;20123;-80
2024/01/06 02:24:09;;;;;;;1.35;1.25;;;16.10;72.20;;;;;;5015088;28;20121;-79
2024/01/06 02:26:34;;;;;;;1.30;1.23;;;16.00;72.50;;;;;;5011673;28;20050;-79
2024/01/06 02:29:01;;;;;;;0.85;0.85;;;16.10;72.20;;;;;;4999353;28;20655;-79
2024/01/06 02:31:27;;;;;;;1.08;0.93;;;16.00;72.70;;;;;;5011340;28;20050;-80
2024/01/06 02:33:52;;;;;;;1.00;0.90;;;16.00;72.20;;;;;;5013193;28;20453;-80
2024/01/06 02:36:18;;;;;;;0.80;0.80;;;16.10;72.40;;;;;;5014109;28;20038;-80
2024/01/06 02:38:44;;;;;;;1.20;1.10;;;16.10;72.30;;;;;;5013429;28;20049;-80
2024/01/06 02:41:09;;;;;;;0.95;0.95;;;16.10;72.30;;;;;;5015841;28;20121;-80
2024/01/06 02:43:35;;;;;;;0.93;0.93;;;16.10;72.90;;;;;;5015222;28;20065;-80
2024/01/06 02:46:00;;;;;;;0.90;0.90;;;16.10;72.20;;;;;;5017770;28;20518;-80
2024/01/06 02:48:26;;;;;;;0.82;0.75;;;16.10;72.10;;;;;;5014957;28;20061;-82
2024/01/06 02:50:51;;;;;;;1.17;1.08;;;16.10;72.10;;;;;;4995793;28;20057;-82
2024/01/06 02:53:17;;;;;;;1.67;0.80;;;16.10;72.10;;;;;;5012627;28;20025;-82
2024/01/06 02:55:42;;;;;;;0.93;0.90;;;16.10;72.30;;;;;;5009252;28;20038;-79
2024/01/06 02:58:08;;;;;;;0.90;0.90;;;16.10;72.10;;;;;;5009746;28;20069;-79
2024/01/06 03:00:33;;;;;;;0.65;0.65;;;16.10;72.10;;;;;;5014214;28;20070;-79
2024/01/06 03:02:59;;;;;;;0.85;0.85;;;16.10;72.00;;;;;;5000493;28;20561;-80
2024/01/06 03:05:25;;;;;;;0.90;0.80;;;16.00;72.10;;;;;;5013502;28;20535;-80
2024/01/06 03:07:50;;;;;;;0.80;0.80;;;16.00;72.10;;;;;;5017030;28;20042;-81
2024/01/06 03:10:16;;;;;;;0.82;0.82;;;16.00;72.20;;;;;;5014016;28;20112;-81
2024/01/06 03:12:41;;;;;;;1.10;1.00;;;16.00;72.30;;;;;;5012591;28;20100;-81
2024/01/06 03:15:07;;;;;;;0.80;0.80;;;16.00;72.20;;;;;;4997287;28;20056;-81
2024/01/06 03:17:33;;;;;;;0.80;0.80;;;16.00;72.10;;;;;;5011881;28;20046;-81
2024/01/06 03:19:58;;;;;;;0.70;0.70;;;16.00;72.20;;;;;;4997758;28;20547;-80
2024/01/06 03:22:24;;;;;;;0.73;0.73;;;16.00;73.00;;;;;;5017596;28;20045;-81
2024/01/06 03:24:49;;;;;;;0.93;0.93;;;16.00;72.30;;;;;;5014624;28;20053;-81
2024/01/06 03:27:15;;;;;;;0.60;0.60;;;16.00;72.90;;;;;;5015647;28;20187;-81
2024/01/06 03:29:41;;;;;;;0.70;0.70;;;16.00;72.20;;;;;;5012839;28;20073;-81
2024/01/06 03:32:06;;;;;;;1.00;0.75;;;16.00;72.10;;;;;;4992925;28;20522;-81
2024/01/06 03:34:32;;;;;;;0.75;0.75;;;16.00;72.20;;;;;;4997463;28;20128;-81
2024/01/06 03:36:57;;;;;;;0.65;0.65;;;16.00;72.30;;;;;;4999935;28;20407;-82
2024/01/06 03:39:23;;;;;;;0.60;0.60;;;16.00;72.30;;;;;;5016336;28;20106;-82
2024/01/06 03:41:48;;;;;;;0.80;0.75;;;16.00;72.20;;;;;;5012051;28;20184;-82
2024/01/06 03:44:14;;;;;;;0.77;0.77;;;16.00;72.20;;;;;;5015162;28;20515;-82
2024/01/06 03:46:40;;;;;;;0.70;0.70;;;15.90;72.10;;;;;;4998762;28;20148;-81
2024/01/06 03:49:05;;;;;;;1.15;0.70;;;16.00;72.10;;;;;;5002213;28;20475;-82
2024/01/06 03:51:31;;;;;;;0.80;0.80;;;15.90;72.20;;;;;;4993389;28;20045;-81
2024/01/06 03:53:56;;;;;;;0.45;0.45;;;16.00;72.20;;;;;;5013565;28;20564;-82
2024/01/06 03:56:22;;;;;;;0.65;0.65;;;15.90;72.10;;;;;;5013916;28;20069;-81
2024/01/06 03:58:48;;;;;;;0.60;0.60;;;16.00;72.20;;;;;;5016487;28;20058;-81
2024/01/06 04:01:13;;;;;;;0.60;0.60;;;15.90;72.20;;;;;;5014825;28;20594;-80
2024/01/06 04:03:42;;;;;;;0.70;0.70;;;16.00;72.20;;;;;;4995220;28;20037;-80
2024/01/06 04:06:07;;;;;;;0.60;0.60;;;15.90;72.00;;;;;;5008727;28;20046;-81
2024/01/06 04:08:33;;;;;;;0.52;0.50;;;16.00;72.00;;;;;;4991620;28;20098;-80
2024/01/06 04:10:58;;;;;;;0.65;0.65;;;16.00;72.00;;;;;;4997107;28;20470;-80
2024/01/06 04:13:24;;;;;;;0.70;0.70;;;16.00;71.90;;;;;;4998055;28;20033;-81
2024/01/06 04:15:50;;;;;;;0.60;0.60;;;16.00;72.10;;;;;;5012638;28;20045;-82
2024/01/06 04:18:16;;;;;;;0.50;0.50;;;16.00;72.10;;;;;;4995990;28;20466;-81
2024/01/06 04:20:42;;;;;;;0.60;0.60;;;16.00;72.00;;;;;;4996167;28;20033;-80
2024/01/06 04:23:07;;;;;;;0.60;0.60;;;16.00;72.00;;;;;;5014149;28;20042;-79
2024/01/06 04:25:33;;;;;;;0.50;0.50;;;16.00;72.10;;;;;;5013433;28;20554;-79
2024/01/06 04:27:58;;;;;;;0.60;0.60;;;16.00;72.20;;;;;;5018747;28;20057;-79
2024/01/06 04:30:25;;;;;;;0.68;0.50;;;15.90;72.20;;;;;;5014324;28;20041;-79
2024/01/06 04:32:51;;;;;;;0.77;0.60;;;15.90;72.10;;;;;;4976318;28;20034;-79
2024/01/06 04:35:17;;;;;;;0.55;0.50;;;15.90;72.10;;;;;;5010966;28;20463;-79
2024/01/06 04:37:42;;;;;;;0.50;0.50;;;15.90;72.00;;;;;;5011047;28;20079;-80
2024/01/06 04:40:08;;;;;;;0.40;0.40;;;15.90;72.90;;;;;;4998546;28;20566;-79
2024/01/06 04:42:34;;;;;;;0.52;0.52;;;15.90;71.90;;;;;;5010893;28;20034;-80
2024/01/06 04:44:59;;;;;;;0.45;0.45;;;15.90;71.90;;;;;;5013381;28;20045;-80
2024/01/06 04:47:25;;;;;;;0.43;0.43;;;15.90;72.00;;;;;;5008451;28;20416;-79
2024/01/06 04:49:50;;;;;;;0.50;0.50;;;15.90;72.10;;;;;;5011434;28;20065;-79
2024/01/06 04:52:16;;;;;;;0.57;0.55;;;15.90;72.10;;;;;;5017577;28;20033;-79
2024/01/06 04:54:41;;;;;;;0.57;0.57;;;15.90;71.90;;;;;;5013048;28;20056;-79
2024/01/06 04:57:07;;;;;;;0.30;0.30;;;15.90;72.10;;;;;;5015115;28;20048;-80
2024/01/06 04:59:32;;;;;;;0.77;0.40;;;15.90;72.10;;;;;;5012398;28;20041;-79
2024/01/06 05:01:58;;;;;;;0.40;0.40;;;15.90;71.90;;;;;;5015447;28;20022;-79
2024/01/06 05:04:24;;;;;;;0.70;0.50;;;15.90;71.90;;;;;;4997679;28;20519;-80
2024/01/06 05:06:51;;;;;;;0.50;0.50;;;15.90;71.90;;;;;;5014289;28;20049;-79
2024/01/06 05:09:16;;;;;;;0.38;0.38;;;15.90;71.90;;;;;;5017773;28;20487;-80
2024/01/06 05:11:45;;;;;;;0.30;0.30;;;15.90;72.00;;;;;;5008443;28;20034;-79
2024/01/06 05:14:11;;;;;;;0.63;0.40;;;15.90;72.00;;;;;;5005418;28;20053;-79
2024/01/06 05:16:36;;;;;;;0.43;0.43;;;15.90;72.00;;;;;;4998684;28;20030;-80
2024/01/06 05:19:02;;;;;;;0.52;0.50;;;15.90;72.10;;;;;;5017462;28;20037;-80
2024/01/06 05:21:28;;;;;;;0.47;0.40;;;15.90;71.90;;;;;;5013563;28;20316;-79
2024/01/06 05:23:53;;;;;;;0.38;0.35;;;15.90;72.00;;;;;;5015059;28;20116;-80
2024/01/06 05:26:19;;;;;;;0.52;0.52;;;15.90;71.90;;;;;;5001245;28;20503;-80
2024/01/06 05:28:45;;;;;;;0.35;0.30;;;15.90;72.00;;;;;;5013813;28;20033;-79
2024/01/06 05:31:10;;;;;;;0.30;0.30;;;15.90;72.10;;;;;;5015751;28;20664;-79
2024/01/06 05:33:36;;;;;;;0.38;0.35;;;15.90;71.90;;;;;;5014047;28;20037;-79
2024/01/06 05:36:02;;;;;;;0.60;0.60;;;15.90;72.10;;;;;;5013250;28;20042;-80
2024/01/06 05:38:27;;;;;;;0.52;0.50;;;15.90;72.10;;;;;;5016470;28;20769;-80
2024/01/06 05:40:53;;;;;;;0.38;0.38;;;15.80;72.00;;;;;;5014141;28;20030;-79
2024/01/06 05:43:18;;;;;;;0.30;0.30;;;15.90;72.00;;;;;;5006277;28;20034;-79
2024/01/06 05:45:44;;;;;;;0.40;0.40;;;15.90;72.00;;;;;;4996066;28;20053;-80
2024/01/06 05:48:10;;;;;;;0.50;0.50;;;15.90;71.90;;;;;;4990719;28;20046;-81
2024/01/06 05:50:39;;;;;;;0.30;0.30;;;15.80;72.00;;;;;;4999154;28;20038;-79
2024/01/06 05:53:05;;;;;;;0.40;0.40;;;15.80;72.00;;;;;;4999830;28;20462;-79
2024/01/06 05:55:30;;;;;;;0.40;0.40;;;15.80;71.80;;;;;;4999824;28;20672;-80
2024/01/06 05:57:56;;;;;;;0.40;0.40;;;15.80;72.80;;;;;;4988223;28;20092;-81
2024/01/06 06:00:22;;;;;;;0.75;0.40;;;15.80;71.80;;;;;;4991182;28;20037;-80
2024/01/06 06:02:48;;;;;;;0.38;0.38;;;15.80;72.00;;;;;;4976349;28;20026;-78
2024/01/06 06:05:13;;;;;;;0.30;0.30;;;15.80;72.10;;;;;;5013265;28;20188;-80
2024/01/06 06:07:39;;;;;;;8.27;5.15;;;15.80;71.90;;;;;;4998323;28;20037;-80
2024/01/06 06:10:08;;;;;;;5.43;4.03;;;15.90;71.90;;;;;;5016285;28;20084;-79
2024/01/06 06:12:34;;;;;;;2.70;2.15;;;15.90;71.90;;;;;;5014174;28;20077;-79
2024/01/06 06:15:00;;;;;;;1.70;1.52;;;15.90;71.50;;;;;;4991340;28;20562;-79
2024/01/06 06:17:26;;;;;;;2.47;1.10;;;16.00;72.60;;;;;;4998333;28;20046;-80
2024/01/06 06:19:51;;;;;;;9.02;6.55;;;16.00;72.80;;;;;;5016397;28;20423;-79
2024/01/06 06:22:17;;;;;;;7.25;5.45;;;16.00;72.70;;;;;;5018075;28;20403;-80
2024/01/06 06:24:42;;;;;;;9.65;6.55;;;15.90;73.40;;;;;;5016596;28;20045;-80
2024/01/06 06:27:08;;;;;;;8.32;6.43;;;16.00;72.50;;;;;;5011308;28;20101;-79
2024/01/06 06:29:34;;;;;;;10.85;6.72;;;16.00;72.60;;;;;;5017035;28;20041;-79
2024/01/06 06:32:00;;;;;;;9.40;7.13;;;16.00;72.70;;;;;;5012061;28;20531;-79
2024/01/06 06:34:25;;;;;;;8.77;6.45;;;16.00;72.70;;;;;;5012796;28;20072;-79
2024/01/06 06:36:51;;;;;;;8.50;6.40;;;16.00;72.80;;;;;;5016459;28;20040;-79
2024/01/06 06:39:18;;;;;;;10.80;6.78;;;16.00;73.10;;;;;;5009567;28;20180;-79
2024/01/06 06:41:43;;;;;;;12.63;6.75;;;16.10;72.30;;;;;;5013448;28;20034;-79
2024/01/06 06:44:10;;;;;;;7.95;5.78;;;16.10;69.80;;;;;;5018311;28;20052;-79
2024/01/06 06:46:36;;;;;;;7.97;5.47;;;15.80;73.10;;;;;;5018334;28;20052;-79
2024/01/06 06:49:02;;;;;;;6.13;5.20;;;16.00;72.40;;;;;;5014999;28;20423;-79
2024/01/06 06:51:28;;;;;;;8.70;4.93;;;16.10;71.40;;;;;;4662010;28;9999778;-81
2024/01/06 06:53:54;;;;;;;6.32;4.40;;;16.20;71.90;;;;;;5014110;28;20056;-81
2024/01/06 06:56:20;;;;;;;7.60;4.60;;;16.30;71.70;;;;;;5011942;28;20033;-80
2024/01/06 06:58:45;;;;;;;4.85;4.18;;;16.40;71.50;;;;;;5006169;28;20045;-80
2024/01/06 07:01:11;;;;;;;4.68;4.13;;;16.40;71.50;;;;;;5015848;28;20034;-80
2024/01/06 07:03:37;;;;;;;5.32;4.10;;;16.50;71.30;;;;;;4984724;28;20076;-79
2024/01/06 07:06:03;;;;;;;4.65;4.22;;;16.60;71.10;;;;;;5009618;28;20054;-79
2024/01/06 07:08:28;;;;;;;4.95;4.40;;;16.60;70.80;;;;;;4984993;28;20057;-80
2024/01/06 07:10:54;;;;;;;4.88;4.20;;;16.70;70.70;;;;;;4988996;28;20443;-80
2024/01/06 07:13:19;;;;;;;4.47;4.05;;;16.70;70.40;;;;;;5017938;28;20049;-79
2024/01/06 07:15:45;;;;;;;4.47;3.97;;;16.80;70.20;;;;;;5010124;28;20033;-80
2024/01/06 07:18:11;;;;;;;5.32;3.83;;;17.00;69.90;;;;;;5004067;28;20053;-79
2024/01/06 07:20:36;;;;;;;3.50;3.20;;;17.00;69.70;;;;;;5008401;28;20599;-79
2024/01/06 07:23:03;;;;;;;4.05;3.53;;;17.00;69.60;;;;;;5007902;28;20066;-80
2024/01/06 07:25:30;;;;;;;3.72;3.42;;;17.10;69.40;;;;;;5015765;28;20443;-79
2024/01/06 07:27:55;;;;;;;4.60;3.03;;;17.10;69.40;;;;;;5012671;28;20041;-79
2024/01/06 07:30:21;;;;;;;4.20;3.10;;;17.10;69.30;;;;;;5010766;28;20054;-79
2024/01/06 07:32:47;;;;;;;3.33;2.83;;;17.10;69.20;;;;;;4990432;28;20042;-79
2024/01/06 07:35:13;;;;;;;4.05;2.72;;;17.20;69.40;;;;;;5010376;28;20042;-79
2024/01/06 07:37:39;;;;;;;3.45;3.15;;;17.20;69.40;;;;;;5012359;28;20053;-79
2024/01/06 07:40:16;;;;;;;3.28;2.80;;;17.20;70.10;;;;;;5034979;28;20487;-79
2024/01/06 07:42:42;;;;;;;3.38;3.08;;;17.20;69.40;;;;;;5025718;28;20033;-79
2024/01/06 07:45:08;;;;;;;3.15;2.85;;;17.20;69.40;;;;;;5032742;28;20130;-80
2024/01/06 07:47:33;;;;;;;3.25;2.95;;;17.20;69.30;;;;;;5020016;28;20185;-78
2024/01/06 07:49:59;;;;;;;2.92;2.72;;;17.20;69.20;;;;;;5016811;28;20183;-80
2024/01/06 07:52:25;;;;;;;3.47;3.17;;;17.30;69.20;;;;;;5034547;28;20033;-79
2024/01/06 07:54:50;;;;;;;4.38;3.20;;;17.20;69.10;;;;;;5034807;28;20571;-80
2024/01/06 07:57:16;;;;;;;2.80;2.55;;;17.30;69.00;;;;;;5034641;28;20049;-79
2024/01/06 07:59:42;;;;;;;5.60;3.17;;;17.30;69.00;;;;;;5036106;28;20037;-79
2024/01/06 08:02:08;;;;;;;3.40;2.33;;;17.30;69.20;;;;;;5037404;28;20034;-80
2024/01/06 08:04:34;;;;;;;2.78;2.58;;;17.30;69.10;;;;;;5039768;28;20488;-79
2024/01/06 08:07:00;;;;;;;3.05;2.65;;;17.30;69.10;;;;;;5020209;28;20037;-79
2024/01/06 08:09:25;;;;;;;2.72;2.50;;;17.30;69.10;;;;;;5018503;28;20069;-80
2024/01/06 08:11:51;;;;;;;2.90;2.45;;;17.30;69.20;;;;;;5034105;28;20041;-80
2024/01/06 08:14:17;;;;;;;2.70;2.38;;;17.40;69.10;;;;;;5038347;28;20049;-80
2024/01/06 08:16:43;;;;;;;2.55;2.35;;;17.50;69.00;;;;;;5037216;28;20053;-80
2024/01/06 08:19:09;;;;;;;4.00;2.60;;;17.50;69.10;;;;;;5040743;28;20484;-80
2024/01/06 08:21:35;;;;;;;3.17;2.25;;;17.40;69.20;;;;;;5039793;28;20032;-80
2024/01/06 08:24:00;;;;;;;2.72;2.45;;;17.40;69.20;;;;;;5004921;28;20057;-80
2024/01/06 08:26:26;;;;;;;3.53;2.63;;;17.40;69.40;;;;;;5022322;28;20037;-83
2024/01/06 08:28:52;;;;;;;2.78;2.05;;;17.40;69.10;;;;;;5068775;28;20037;-81
2024/01/06 08:31:18;;;;;;;2.60;2.40;;;17.40;69.20;;;;;;5025065;28;20072;-80
2024/01/06 08:33:43;;;;;;;1.90;1.80;;;17.40;69.10;;;;;;5020574;28;20037;-81
2024/01/06 08:36:09;;;;;;;2.70;2.45;;;17.40;69.60;;;;;;5016876;28;20057;-80
2024/01/06 08:38:35;;;;;;;2.65;2.08;;;17.40;69.60;;;;;;4998249;28;20053;-79
2024/01/06 08:41:01;;;;;;;2.40;2.20;;;17.30;70.10;;;;;;4999749;28;20042;-79
2024/01/06 08:43:27;;;;;;;2.75;2.30;;;17.30;69.40;;;;;;5001346;28;20030;-80
2024/01/06 08:45:53;;;;;;;2.88;2.22;;;17.40;70.20;;;;;;5033318;28;20048;-78
2024/01/06 08:48:18;;;;;;;2.53;1.95;;;17.40;69.90;;;;;;5016784;28;20045;-79
2024/01/06 08:50:45;;;;;;;2.97;2.05;;;17.30;70.00;;;;;;5025472;28;20045;-79
2024/01/06 08:53:11;;;;;;;1.83;1.73;;;17.30;70.40;;;;;;5019069;28;20042;-78
2024/01/06 08:55:36;;;;;;;2.92;2.03;;;17.30;70.60;;;;;;5021538;28;20043;-79
2024/01/06 08:58:02;;;;;;;4.47;1.58;;;17.30;70.50;;;;;;5020050;28;20050;-79
2024/01/06 09:00:28;;;;;;;3.95;2.05;;;17.30;70.70;;;;;;5024798;28;20057;-79
2024/01/06 09:02:53;;;;;;;1.73;1.63;;;17.30;70.90;;;;;;5021854;28;20463;-79
2024/01/06 09:05:19;;;;;;;3.33;1.85;;;17.30;71.00;;;;;;5021766;28;20041;-79
2024/01/06 09:07:49;;;;;;;2.17;1.98;;;17.30;71.20;;;;;;5020940;28;20041;-79
2024/01/06 09:10:19;;;;;;;2.80;1.75;;;17.40;70.80;;;;;;5024449;28;20076;-79
2024/01/06 09:12:44;;;;;;;3.25;1.52;;;17.30;70.80;;;;;;5024278;28;20064;-79
2024/01/06 09:15:10;;;;;;;1.88;1.67;;;17.30;71.00;;;;;;5015133;28;20069;-79
2024/01/06 09:17:35;;;;;;;2.03;1.48;;;17.30;71.10;;;;;;5021626;28;20042;-79
2024/01/06 09:20:01;;;;;;;1.60;1.50;;;17.30;71.10;;;;;;5024694;28;20526;-79
2024/01/06 09:22:27;;;;;;;2.85;1.80;;;17.20;71.20;;;;;;5023594;28;20096;-80
2024/01/06 09:24:54;;;;;;;1.58;1.45;;;17.30;71.10;;;;;;5022122;28;20049;-79
2024/01/06 09:27:20;;;;;;;3.33;1.52;;;17.30;71.30;;;;;;5024117;28;20124;-80
2024/01/06 09:29:46;;;;;;;1.50;1.40;;;17.30;71.20;;;;;;5006490;28;20072;-80
2024/01/06 09:32:12;;;;;;;1.60;1.30;;;17.20;71.20;;;;;;5012852;28;20050;-79
2024/01/06 09:34:38;;;;;;;1.83;1.30;;;17.30;71.30;;;;;;5012448;28;20033;-80
2024/01/06 09:37:04;;;;;;;1.55;1.45;;;17.30;71.10;;;;;;5025654;28;20049;-80
2024/01/06 09:39:31;;;;;;;1.50;1.40;;;17.20;71.20;;;;;;5012085;28;20065;-80
2024/01/06 09:41:57;;;;;;;2.90;1.50;;;17.20;71.20;;;;;;5021461;28;20124;-81
2024/01/06 09:44:22;;;;;;;1.30;1.20;;;17.20;71.60;;;;;;5006304;28;20533;-80
2024/01/06 09:46:48;;;;;;;1.65;1.40;;;17.30;71.40;;;;;;5022591;28;20053;-79
2024/01/06 09:49:15;;;;;;;1.92;1.30;;;17.30;71.40;;;;;;5004407;28;20555;-79
2024/01/06 09:51:40;;;;;;;2.35;1.55;;;17.30;71.40;;;;;;4991058;28;20396;-80
2024/01/06 09:54:09;;;;;;;1.55;1.27;;;17.30;71.40;;;;;;5001256;28;20562;-80
2024/01/06 09:56:34;;;;;;;2.30;1.20;;;17.20;71.10;;;;;;5015506;28;20044;-80
2024/01/06 09:59:00;;;;;;;2.05;1.35;;;17.20;71.50;;;;;;5012164;28;20046;-80
2024/01/06 10:01:26;;;;;;;2.03;1.20;;;17.00;70.70;;;;;;5006067;28;20050;-80
2024/01/06 10:03:51;;;;;;;2.05;1.42;;;17.10;71.30;;;;;;5019070;28;20116;-79
2024/01/06 10:06:17;;;;;;;1.40;1.23;;;17.10;71.30;;;;;;5023377;28;20087;-81
2024/01/06 10:08:44;;;;;;;4.22;1.10;;;17.10;71.30;;;;;;5022512;28;20033;-80
2024/01/06 10:11:10;;;;;;;3.30;1.75;;;17.10;71.40;;;;;;5006832;28;20049;-80
2024/01/06 10:13:37;;;;;;;2.53;1.30;;;17.10;71.50;;;;;;5040010;28;20060;-80
2024/01/06 10:16:02;;;;;;;2.42;1.33;;;17.10;71.50;;;;;;5025440;28;20050;-80
2024/01/06 10:18:29;;;;;;;1.98;1.38;;;17.10;71.60;;;;;;5021026;28;20038;-80
2024/01/06 10:20:55;;;;;;;1.30;1.20;;;17.10;71.70;;;;;;5035002;28;20120;-80
2024/01/06 10:23:26;;;;;;;2.60;1.38;;;17.10;71.90;;;;;;5004080;28;20038;-80
2024/01/06 10:25:53;;;;;;;1.48;1.20;;;17.10;71.80;;;;;;5001544;28;20034;-80
2024/01/06 10:28:20;;;;;;;3.90;1.20;;;17.10;71.60;;;;;;4999441;28;20053;-80
2024/01/06 10:30:45;;;;;;;5.53;2.40;;;17.10;71.30;;;;;;5010603;28;20056;-79
2024/01/06 10:33:13;;;;;;;2.05;1.67;;;17.20;71.20;;;;;;5020842;28;20470;-80
2024/01/06 10:35:41;;;;;;;2.38;1.38;;;17.20;71.20;;;;;;5031942;28;20037;-80
2024/01/06 10:38:07;;;;;;;1.88;1.77;;;17.20;71.10;;;;;;5035318;28;20072;-80
2024/01/06 10:40:33;;;;;;;1.70;1.60;;;17.20;71.00;;;;;;5022332;28;20499;-80
2024/01/06 10:42:58;;;;;;;1.65;1.50;;;17.10;71.20;;;;;;5020258;28;20092;-80
2024/01/06 10:45:24;;;;;;;1.40;1.30;;;17.10;71.00;;;;;;5004301;28;20037;-81
2024/01/06 10:47:49;;;;;;;1.65;1.55;;;17.10;71.10;;;;;;5021856;28;20491;-80
2024/01/06 10:50:21;;;;;;;3.20;1.38;;;17.10;71.00;;;;;;5020326;28;21035;-80
2024/01/06 10:52:46;;;;;;;1.65;1.55;;;17.10;71.00;;;;;;5006201;28;20041;-80
2024/01/06 10:55:14;;;;;;;1.55;1.40;;;17.10;71.10;;;;;;5007166;28;20060;-80
2024/01/06 10:57:40;;;;;;;1.30;1.30;;;17.10;71.10;;;;;;4993580;28;20072;-80
2024/01/06 11:00:07;;;;;;;1.95;1.38;;;17.10;71.30;;;;;;4970091;28;20060;-80
2024/01/06 11:02:32;;;;;;;1.45;1.20;;;17.10;71.30;;;;;;5015342;28;20048;-80
2024/01/06 11:04:58;;;;;;;1.90;1.30;;;17.10;71.40;;;;;;4972589;28;20038;-80
2024/01/06 11:07:24;;;;;;;2.88;1.25;;;17.10;71.30;;;;;;5024515;28;20497;-80
2024/01/06 11:10:11;;;;;;;1.02;1.00;;;17.10;71.30;;;;;;5040965;28;20111;-80
2024/01/06 11:12:37;;;;;;;1.25;1.13;;;17.10;71.30;;;;;;5016735;28;20045;-80
2024/01/06 11:15:04;;;;;;;1.50;1.10;;;17.10;71.40;;;;;;5003537;28;20124;-80
2024/01/06 11:17:48;;;;;;;1.27;0.90;;;17.10;71.30;;;;;;5019577;28;20053;-80
2024/01/06 11:20:14;;;;;;;1.15;1.08;;;17.10;71.50;;;;;;5019374;28;20049;-80
2024/01/06 11:22:40;;;;;;;1.33;1.23;;;17.10;71.60;;;;;;5023556;28;20495;-80
2024/01/06 11:25:07;;;;;;;2.15;1.13;;;17.10;71.50;;;;;;5024100;28;20535;-80
2024/01/06 11:27:32;;;;;;;3.33;1.05;;;17.10;71.50;;;;;;5019243;28;20499;-80
2024/01/06 11:30:00;;;;;;;1.30;1.10;;;17.10;71.40;;;;;;5019744;28;20275;-80
2024/01/06 11:32:25;;;;;;;1.35;1.20;;;17.10;71.30;;;;;;5023872;28;20053;-80
2024/01/06 11:34:52;;;;;;;1.08;0.98;;;17.10;71.60;;;;;;5019394;28;20415;-80
2024/01/06 11:37:19;;;;;;;1.25;1.15;;;17.10;71.50;;;;;;5024318;28;20149;-80
2024/01/06 11:39:45;;;;;;;1.65;1.10;;;17.10;71.30;;;;;;5004905;28;20096;-80
2024/01/06 11:42:11;;;;;;;2.53;1.00;;;17.10;71.10;;;;;;5022444;28;20072;-80
2024/01/06 11:44:38;;;;;;;1.80;0.93;;;17.10;71.00;;;;;;5021072;28;20124;-80
2024/01/06 11:47:04;;;;;;;1.40;1.30;;;17.10;70.90;;;;;;5021749;28;20046;-80
2024/01/06 11:49:29;;;;;;;1.77;0.80;;;17.10;70.90;;;;;;5006649;28;20522;-80
2024/01/06 11:51:58;;;;;;;0.73;0.73;;;17.10;70.70;;;;;;5008254;28;20045;-80
2024/01/06 11:54:23;;;;;;;1.02;0.93;;;17.10;70.70;;;;;;5002015;28;20037;-81
2024/01/06 11:56:49;;;;;;;1.25;0.93;;;17.10;70.70;;;;;;5018000;28;20408;-81
2024/01/06 11:59:14;;;;;;;2.95;1.00;;;17.10;71.30;;;;;;5014237;28;20045;-80
2024/01/06 12:01:40;;;;;;;1.33;0.90;;;17.10;71.30;;;;;;5000667;28;20076;-81
2024/01/06 12:04:06;;;;;;;1.20;1.00;;;17.10;70.90;;;;;;5018956;28;20245;-81
2024/01/06 12:06:32;;;;;;;2.60;1.40;;;17.20;70.70;;;;;;5017464;28;20103;-81
2024/01/06 12:09:05;;;;;;;6.20;2.00;;;17.20;71.10;;;;;;4993657;28;20045;-80
2024/01/06 12:11:31;;;;;;;4.35;1.83;;;17.20;72.10;;;;;;5016932;28;20141;-80
2024/01/06 12:13:56;;;;;;;5.53;1.55;;;17.20;73.00;;;;;;5016952;28;20436;-80
2024/01/06 12:16:26;;;;;;;3.85;2.10;;;17.20;74.60;;;;;;5019646;28;20543;-80
2024/01/06 12:18:55;;;;;;;2.35;1.70;;;17.20;74.90;;;;;;5017521;28;20358;-80
2024/01/06 12:21:23;;;;;;;4.40;2.67;;;17.10;75.30;;;;;;4987965;28;20061;-81
2024/01/06 12:23:49;;;;;;;4.28;2.50;;;17.20;76.40;;;;;;4998234;28;20038;-81
2024/01/06 12:26:16;;;;;;;4.45;2.10;;;17.10;75.80;;;;;;5019148;28;20388;-81
2024/01/06 12:28:44;;;;;;;3.33;1.90;;;17.10;75.60;;;;;;4998235;28;20141;-80
2024/01/06 12:31:11;;;;;;;2.03;1.83;;;17.10;75.30;;;;;;5006673;28;20045;-80
2024/01/06 12:33:38;;;;;;;3.70;1.85;;;17.00;74.80;;;;;;5020763;28;20325;-80
2024/01/06 12:36:04;;;;;;;3.03;1.65;;;17.00;74.40;;;;;;5002760;28;20430;-79
2024/01/06 12:38:30;;;;;;;2.40;1.40;;;17.00;74.00;;;;;;5020777;28;20049;-80